Terminal Aerodrome Forecast
Issued by NWS

Home | Current Version | Previous Version | Graphics & Text | Print | Product List | Glossary On
Versions: 1 2 3 4 5 6 7 8 9 10 11 12 13 14 15 16 17 18 19 20 21 22
512
FTUS43 KMPX 161739
TAFRWF
TAF
KRWF 161739Z 1618/1718 33010KT P6SM VCSH SCT015 BKN025 BKN090
     FM162200 31008KT P6SM SCT020 BKN035
      TEMPO 1622/1702 BKN020
     FM170200 29010KT P6SM SCT020=

USA.gov is the U.S. government's official web portal to all federal, state and local government web resources and services.